Terminal Aerodrome Forecast
Issued by NWS Jackson, MS

Current Version | Previous Version | Text Only | Print | Product List | Glossary On
Versions: 1 2 3 4 5 6 7 8 9 10 11 12 13 14 15 16 17 18 19
998
FTUS44 KJAN 291729
TAFGLH
TAF
KGLH 291729Z 2918/3018 25007KT P6SM VCTS SCT030CB
     FM300000 19005KT P6SM SCT040
     FM301400 26006KT 6SM HZ FEW250=

USA.gov is the U.S. government's official web portal to all federal, state and local government web resources and services.